Glenwood, New York
Current Conditions -  °F | °C
As of 5:54 PM on Wednesday 22 Oct 2014 (Local Time) from KBUF Reporting Station
Broken Clouds Broken Clouds  
Wind Chill: 45°   Ceiling: 3000
Heat Index: 47°   Visibility: 10mi
Dew Point: 40°   Wind: 5mph
Humidity: 77%   Direction: 350°N
Pressure: 30.21"   Gusts: NA
Location:  42.61°N, 78.65°W
Report Text: KBUF 222154Z 35004KT 10SM SCT025 BKN030 BKN055 BKN160 08/04 A3021 RMK AO2 SLP235 T00830044
Loading
Personal Weather Stations






























Interactive Weather Map
Tropical Storm Tracking
New forecast layout! Learn more

10-Day Weather Forecast

Advertisements
Track Severe Weather on mobile